Weather at Accomack County Airport

Public forecast

Using degrees Fahrenheit for public forecast. Weather courtesy of forecast.io.

Current aviation weather report (METAR) for Accomack County Airport

Retrieved 2021/09/17 04:15 UTC (5 minutes ago):

KMFV 170415Z AUTO 06005KT 10SM SCT012 22/06 A3011 RMK AO2 T02220057

Closest aviation forecast (TAF) to Accomack County Airport

Closest forecast is Salisbury Ocean City Wicomico Regional Airport, 43.3 nm (80.2 km) NNE. Retrieved 2021-09-17 00:34 UTC (4 hours ago):

TAF KSBY 162332Z 1700/1724 07006KT P6SM SCT030 BKN150 FM170500 05006KT P6SM BKN015 FM170900 05006KT P6SM VCSH BKN009 OVC015 FM171200 05007KT P6SM VCSH BKN015 FM171600 05011KT P6SM BKN025